Time;durP1;ratioP1;P1;durP2;ratioP2;P2;SDS_P1;SDS_P2;PMS_P1;PMS_P2;Temp;Humidity;BMP_temperature;BMP_pressure;BME280_temperature;BME280_humidity;BME280_pressure;Samples;Min_cycle;Max_cycle;Signal;HPM_P1;HPM_P2
2023/05/30 00:02:12;;;;;;;;;;;10.30;99.90;;;;;;5086000;28;20026;-84
2023/05/30 00:04:39;;;;;;;;;;;10.40;99.90;;;;;;5083046;28;19932;-84
2023/05/30 00:07:05;;;;;;;;;;;10.20;99.90;;;;;;5086450;28;19932;-84
2023/05/30 00:09:31;;;;;;;;;;;10.20;99.90;;;;;;5062529;28;19943;-83
2023/05/30 00:12:00;;;;;;;;;;;10.30;99.90;;;;;;5082060;28;20062;-83
2023/05/30 00:14:26;;;;;;;;;;;10.30;99.90;;;;;;5082854;28;20346;-84
2023/05/30 00:16:52;;;;;;;;;;;10.10;99.90;;;;;;5090449;28;20048;-83
2023/05/30 00:19:19;;;;;;;;;;;10.20;99.90;;;;;;5074336;28;19942;-84
2023/05/30 00:21:45;;;;;;;;;;;10.30;99.90;;;;;;5085631;28;19928;-84
2023/05/30 00:24:11;;;;;;;;;;;10.30;99.90;;;;;;5078874;28;19924;-84
2023/05/30 00:26:37;;;;;;;;;;;10.40;99.90;;;;;;5090987;28;19986;-85
2023/05/30 00:29:03;;;;;;;;;;;10.40;99.90;;;;;;5092624;28;19928;-84
2023/05/30 00:31:30;;;;;;;;;;;10.30;99.90;;;;;;5094169;28;19935;-83
2023/05/30 00:33:55;;;;;;;;;;;10.50;99.90;;;;;;5089596;28;19931;-84
2023/05/30 00:36:21;;;;;;;;;;;10.50;99.90;;;;;;5090264;28;20301;-85
2023/05/30 00:38:47;;;;;;;;;;;10.60;99.90;;;;;;5092681;28;20026;-84
2023/05/30 00:41:12;;;;;;;;;;;10.60;99.90;;;;;;5081178;28;20121;-84
2023/05/30 00:43:40;;;;;;;;;;;10.60;99.90;;;;;;5086458;28;21370;-83
2023/05/30 00:46:06;;;;;;;;;;;10.60;99.90;;;;;;5064221;28;20051;-83
2023/05/30 00:48:31;;;;;;;;;;;10.70;99.90;;;;;;5091277;28;20020;-84
2023/05/30 00:50:57;;;;;;;;;;;10.70;99.90;;;;;;5086342;28;19932;-84
2023/05/30 00:53:23;;;;;;;;;;;10.80;99.90;;;;;;5094369;28;19931;-83
2023/05/30 00:55:49;;;;;;;;;;;10.60;99.90;;;;;;5089327;28;19934;-84
2023/05/30 00:58:15;;;;;;;;;;;10.60;99.90;;;;;;5087931;28;19929;-84
2023/05/30 01:00:41;;;;;;;;;;;10.60;99.90;;;;;;5084544;28;19928;-83
2023/05/30 01:03:09;;;;;;;;;;;10.60;99.90;;;;;;5089621;28;21359;-84
2023/05/30 01:05:35;;;;;;;;;;;10.60;99.90;;;;;;5086631;28;19940;-84
2023/05/30 01:08:01;;;;;;;;;;;10.70;99.90;;;;;;5096742;28;20311;-83
2023/05/30 01:10:29;;;;;;;;;;;10.70;99.90;;;;;;5082812;28;19928;-83
2023/05/30 01:13:01;;;;;;;;;;;10.70;99.90;;;;;;5090227;28;20006;-84
2023/05/30 01:15:29;;;;;;;;;;;10.70;99.90;;;;;;5088835;28;20385;-85
2023/05/30 01:18:11;;;;;;;;;;;10.80;99.90;;;;;;5088275;28;20313;-84
2023/05/30 01:20:38;;;;;;;;;;;10.80;99.90;;;;;;5076386;28;19935;-84
2023/05/30 01:23:26;;;;;;;;;;;10.90;99.90;;;;;;5083984;28;19934;-84
2023/05/30 01:26:21;;;;;;;;;;;11.00;99.90;;;;;;5093985;28;19932;-84
2023/05/30 01:28:48;;;;;;;;;;;11.00;99.90;;;;;;5085124;28;19928;-85
2023/05/30 01:31:15;;;;;;;;;;;10.90;99.90;;;;;;5093121;28;19935;-84
2023/05/30 01:33:41;;;;;;;;;;;10.90;99.90;;;;;;5093031;28;19928;-83
2023/05/30 01:36:07;;;;;;;;;;;10.90;99.90;;;;;;5091099;28;19930;-86
2023/05/30 01:38:34;;;;;;;;;;;10.90;99.90;;;;;;5090043;28;19932;-81
2023/05/30 01:41:00;;;;;;;;;;;11.00;99.90;;;;;;5093597;28;20317;-85
2023/05/30 01:43:29;;;;;;;;;;;11.00;99.90;;;;;;5085767;28;20391;-84
2023/05/30 01:46:03;;;;;;;;;;;11.10;99.90;;;;;;5094353;28;20010;-82
2023/05/30 01:48:35;;;;;;;;;;;11.10;99.90;;;;;;5084639;28;19978;-85
2023/05/30 01:51:02;;;;;;;;;;;11.10;99.90;;;;;;5088320;28;19931;-82
2023/05/30 01:53:35;;;;;;;;;;;11.10;99.90;;;;;;5085883;28;19924;-85
2023/05/30 01:56:01;;;;;;;;;;;11.10;99.90;;;;;;5089458;28;20381;-85
2023/05/30 01:58:28;;;;;;;;;;;11.10;99.90;;;;;;5077497;28;19928;-85
2023/05/30 02:00:54;;;;;;;;;;;11.10;99.90;;;;;;5085006;28;19928;-85
2023/05/30 02:03:22;;;;;;;;;;;11.10;99.90;;;;;;5092798;28;19928;-85
2023/05/30 02:05:47;;;;;;;;;;;11.10;99.90;;;;;;5088810;28;19947;-81
2023/05/30 02:08:13;;;;;;;;;;;11.20;99.90;;;;;;5090877;28;19932;-84
2023/05/30 02:10:38;;;;;;;;;;;11.10;99.90;;;;;;5093043;28;19938;-83
2023/05/30 02:13:04;;;;;;;;;;;11.20;99.90;;;;;;5087062;28;19935;-85
2023/05/30 02:15:29;;;;;;;;;;;11.20;99.90;;;;;;5076593;28;19934;-81
2023/05/30 02:17:55;;;;;;;;;;;11.20;99.90;;;;;;5087828;28;19935;-84
2023/05/30 02:20:20;;;;;;;;;;;11.20;99.90;;;;;;5069284;28;19928;-84
2023/05/30 02:22:46;;;;;;;;;;;11.20;99.90;;;;;;5094716;28;19934;-86
2023/05/30 02:25:12;;;;;;;;;;;11.20;99.90;;;;;;5088706;28;19927;-84
2023/05/30 02:27:37;;;;;;;;;;;11.30;99.90;;;;;;5092532;28;20284;-85
2023/05/30 02:30:03;;;;;;;;;;;11.20;99.90;;;;;;5074432;28;20022;-84
2023/05/30 02:32:29;;;;;;;;;;;11.20;99.90;;;;;;5095769;28;19938;-85
2023/05/30 02:34:54;;;;;;;;;;;11.20;99.90;;;;;;5098053;28;19924;-86
2023/05/30 02:37:20;;;;;;;;;;;11.20;99.90;;;;;;5071483;28;20027;-84
2023/05/30 02:39:45;;;;;;;;;;;11.20;99.90;;;;;;5080804;28;20031;-85
2023/05/30 02:42:11;;;;;;;;;;;11.20;99.90;;;;;;5074596;28;19986;-85
2023/05/30 02:44:36;;;;;;;;;;;11.10;99.90;;;;;;5097707;28;19924;-84
2023/05/30 02:47:02;;;;;;;;;;;11.10;99.90;;;;;;5095384;28;19928;-84
2023/05/30 02:49:27;;;;;;;;;;;11.10;99.90;;;;;;5095766;28;19958;-85
2023/05/30 02:51:53;;;;;;;;;;;11.10;99.90;;;;;;5095167;28;19932;-85
2023/05/30 02:54:18;;;;;;;;;;;11.10;99.90;;;;;;5072351;28;19931;-85
2023/05/30 02:56:44;;;;;;;;;;;11.10;99.90;;;;;;5090515;28;19928;-83
2023/05/30 02:59:09;;;;;;;;;;;11.00;99.90;;;;;;5096514;28;20023;-84
2023/05/30 03:01:35;;;;;;;;;;;11.00;99.90;;;;;;5075115;28;20355;-85
2023/05/30 03:04:00;;;;;;;;;;;11.00;99.90;;;;;;5092986;28;21613;-84
2023/05/30 03:06:27;;;;;;;;;;;11.00;99.90;;;;;;5099412;28;20529;-83
2023/05/30 03:08:57;;;;;;;;;;;11.00;99.90;;;;;;5089939;28;19977;-83
2023/05/30 03:11:23;;;;;;;;;;;11.00;99.90;;;;;;5097545;28;20019;-84
2023/05/30 03:13:50;;;;;;;;;;;11.00;99.90;;;;;;5074503;28;20673;-84
2023/05/30 03:16:16;;;;;;;;;;;11.10;99.90;;;;;;5089542;28;19939;-84
2023/05/30 03:18:41;;;;;;;;;;;11.10;99.90;;;;;;5093712;28;19974;-83
2023/05/30 03:21:08;;;;;;;;;;;11.00;99.90;;;;;;5094207;28;19931;-84
2023/05/30 03:23:34;;;;;;;;;;;11.00;99.90;;;;;;5097780;28;20431;-84
2023/05/30 03:25:59;;;;;;;;;;;11.00;99.90;;;;;;5090713;28;19928;-84
2023/05/30 03:28:25;;;;;;;;;;;11.00;99.90;;;;;;5093366;28;19971;-83
2023/05/30 03:30:50;;;;;;;;;;;11.10;99.90;;;;;;5092781;28;19982;-83
2023/05/30 03:33:16;;;;;;;;;;;11.00;99.90;;;;;;5072297;28;19932;-84
2023/05/30 03:35:42;;;;;;;;;;;11.10;99.90;;;;;;5098496;28;19923;-84
2023/05/30 03:38:08;;;;;;;;;;;11.00;99.90;;;;;;5089707;28;20068;-83
2023/05/30 03:40:33;;;;;;;;;;;11.00;99.90;;;;;;5092962;28;20658;-85
2023/05/30 03:42:59;;;;;;;;;;;11.10;99.90;;;;;;5091005;28;20211;-83
2023/05/30 03:45:25;;;;;;;;;;;11.20;99.90;;;;;;5093843;28;19931;-84
2023/05/30 03:47:50;;;;;;;;;;;11.20;99.90;;;;;;5092975;28;19928;-84
2023/05/30 03:50:16;;;;;;;;;;;11.10;99.90;;;;;;5092508;28;19927;-83
2023/05/30 03:52:41;;;;;;;;;;;11.20;99.90;;;;;;5098093;28;19927;-84
2023/05/30 03:55:07;;;;;;;;;;;11.30;99.90;;;;;;5092048;28;20010;-84
2023/05/30 03:57:33;;;;;;;;;;;11.20;99.90;;;;;;5097396;28;19974;-83
2023/05/30 03:59:58;;;;;;;;;;;11.30;99.90;;;;;;5097907;28;19976;-87
2023/05/30 04:02:24;;;;;;;;;;;11.20;99.90;;;;;;5093970;28;20682;-84
2023/05/30 04:04:50;;;;;;;;;;;11.30;99.90;;;;;;5098416;28;21375;-84
2023/05/30 04:07:15;;;;;;;;;;;11.40;99.90;;;;;;5090792;28;20713;-83
2023/05/30 04:09:41;;;;;;;;;;;11.40;99.90;;;;;;5098141;28;20395;-84
2023/05/30 04:12:06;;;;;;;;;;;11.30;99.90;;;;;;5093434;28;20288;-84
2023/05/30 04:14:32;;;;;;;;;;;11.40;99.90;;;;;;5091956;28;19928;-84
2023/05/30 04:16:58;;;;;;;;;;;11.50;99.90;;;;;;5091735;28;19971;-84
2023/05/30 04:19:23;;;;;;;;;;;11.40;99.90;;;;;;5097958;28;19928;-83
2023/05/30 04:21:49;;;;;;;;;;;11.40;99.90;;;;;;5097532;28;19953;-86
2023/05/30 04:24:15;;;;;;;;;;;11.40;99.90;;;;;;5090169;28;19934;-84
2023/05/30 04:26:41;;;;;;;;;;;11.40;99.90;;;;;;5091287;28;19963;-83
2023/05/30 04:29:08;;;;;;;;;;;11.40;99.90;;;;;;5091990;28;19963;-84
2023/05/30 04:31:33;;;;;;;;;;;11.50;99.90;;;;;;5091898;28;19954;-84
2023/05/30 04:33:59;;;;;;;;;;;11.60;99.90;;;;;;5079382;28;19929;-84
2023/05/30 04:36:27;;;;;;;;;;;11.70;99.90;;;;;;5096437;28;20469;-85
2023/05/30 04:38:55;;;;;;;;;;;11.70;99.90;;;;;;5096877;28;19924;-84
2023/05/30 04:41:24;;;;;;;;;;;11.80;99.90;;;;;;5071961;28;19992;-86
2023/05/30 04:43:54;;;;;;;;;;;11.80;99.90;;;;;;5092680;28;19932;-85
2023/05/30 04:46:21;;;;;;;;;;;12.00;99.90;;;;;;5081792;28;19955;-84
2023/05/30 04:48:48;;;;;;;;;;;12.60;99.90;;;;;;5094088;28;19946;-84
2023/05/30 04:51:14;;;;;;;;;;;14.00;99.90;;;;;;5094506;28;20018;-84
2023/05/30 04:53:40;;;;;;;;;;;13.20;99.90;;;;;;5088919;28;19966;-85
2023/05/30 04:56:06;;;;;;;;;;;12.80;99.90;;;;;;5091840;28;19975;-85
2023/05/30 04:58:31;;;;;;;;;;;12.90;99.90;;;;;;5093742;28;19928;-84
2023/05/30 05:00:58;;;;;;;;;;;14.00;99.90;;;;;;5096082;28;19928;-83
2023/05/30 05:03:24;;;;;;;;;;;13.50;99.90;;;;;;5086740;28;19970;-82
2023/05/30 05:05:51;;;;;;;;;;;12.90;99.90;;;;;;5094607;28;20024;-85
2023/05/30 05:08:16;;;;;;;;;;;13.10;99.90;;;;;;5090199;28;19928;-84
2023/05/30 05:10:42;;;;;;;;;;;13.00;99.90;;;;;;5096281;28;20403;-85
2023/05/30 05:13:07;;;;;;;;;;;12.90;99.90;;;;;;5091410;28;19981;-84
2023/05/30 05:15:33;;;;;;;;;;;12.90;99.90;;;;;;5097048;28;19928;-85
2023/05/30 05:17:59;;;;;;;;;;;12.90;99.90;;;;;;5079217;28;20013;-85
2023/05/30 05:20:26;;;;;;;;;;;12.90;99.90;;;;;;5095727;28;19924;-85
2023/05/30 05:22:53;;;;;;;;;;;12.80;99.90;;;;;;5077387;28;19943;-85
2023/05/30 05:25:19;;;;;;;;;;;12.70;99.90;;;;;;5093748;28;19931;-84
2023/05/30 05:27:44;;;;;;;;;;;12.90;99.90;;;;;;5093830;28;20011;-85
2023/05/30 05:30:10;;;;;;;;;;;12.90;99.90;;;;;;5093138;28;19924;-84
2023/05/30 05:32:38;;;;;;;;;;;13.00;99.90;;;;;;5093684;28;19928;-85
2023/05/30 05:35:05;;;;;;;;;;;13.10;99.90;;;;;;5099915;28;19956;-84
2023/05/30 05:37:30;;;;;;;;;;;13.10;99.90;;;;;;5093003;28;19987;-86
2023/05/30 05:39:56;;;;;;;;;;;13.10;99.90;;;;;;5098670;28;19963;-84
2023/05/30 05:42:21;;;;;;;;;;;13.10;99.90;;;;;;5087302;28;19940;-84
2023/05/30 05:44:47;;;;;;;;;;;12.90;99.90;;;;;;5094181;28;19939;-84
2023/05/30 05:47:12;;;;;;;;;;;13.00;99.90;;;;;;5087841;28;19932;-86
2023/05/30 05:49:38;;;;;;;;;;;13.20;99.90;;;;;;5073581;28;19977;-86
2023/05/30 05:52:03;;;;;;;;;;;13.30;99.90;;;;;;5089919;28;19928;-83
2023/05/30 05:54:29;;;;;;;;;;;13.10;99.90;;;;;;5089031;28;19928;-83
2023/05/30 05:56:55;;;;;;;;;;;13.30;99.90;;;;;;5088787;28;19932;-84
2023/05/30 05:59:20;;;;;;;;;;;13.40;99.90;;;;;;5089153;28;19935;-84
2023/05/30 06:01:46;;;;;;;;;;;13.90;99.90;;;;;;5087637;28;19931;-83
2023/05/30 06:04:12;;;;;;;;;;;13.90;99.90;;;;;;5097684;28;19928;-85
2023/05/30 06:06:37;;;;;;;;;;;14.10;99.90;;;;;;5092996;28;20464;-84
2023/05/30 06:09:03;;;;;;;;;;;14.30;99.90;;;;;;5086658;28;19980;-84
2023/05/30 06:11:29;;;;;;;;;;;14.30;99.90;;;;;;5090737;28;19942;-84
2023/05/30 06:13:54;;;;;;;;;;;14.30;99.90;;;;;;5091853;28;19927;-83
2023/05/30 06:16:20;;;;;;;;;;;14.60;99.90;;;;;;5097676;28;19935;-84
2023/05/30 06:18:45;;;;;;;;;;;14.30;99.90;;;;;;5099216;28;19938;-84
2023/05/30 06:21:11;;;;;;;;;;;14.30;99.90;;;;;;5097974;28;19932;-85
2023/05/30 06:23:37;;;;;;;;;;;14.20;99.90;;;;;;5098323;28;20003;-83
2023/05/30 06:26:02;;;;;;;;;;;14.10;99.90;;;;;;5076249;28;20053;-87
2023/05/30 06:28:28;;;;;;;;;;;14.10;99.90;;;;;;5092748;28;20628;-83
2023/05/30 06:30:54;;;;;;;;;;;14.10;99.90;;;;;;5097254;28;19932;-85
2023/05/30 06:33:20;;;;;;;;;;;14.10;99.90;;;;;;5096040;28;19923;-85
2023/05/30 06:35:46;;;;;;;;;;;14.20;99.90;;;;;;5075827;28;19965;-84
2023/05/30 06:38:12;;;;;;;;;;;14.20;99.90;;;;;;5076810;28;19932;-84
2023/05/30 06:40:37;;;;;;;;;;;14.40;99.90;;;;;;5095248;28;19931;-85
2023/05/30 06:43:03;;;;;;;;;;;14.30;99.90;;;;;;5078658;28;20694;-85
2023/05/30 06:45:28;;;;;;;;;;;14.10;99.90;;;;;;5092686;28;19932;-84
2023/05/30 06:47:54;;;;;;;;;;;14.10;99.90;;;;;;5094321;28;19935;-85
2023/05/30 06:50:20;;;;;;;;;;;13.90;99.90;;;;;;5093030;28;20555;-82
2023/05/30 06:52:45;;;;;;;;;;;13.90;99.90;;;;;;5089650;28;19931;-85
2023/05/30 06:55:11;;;;;;;;;;;14.00;99.90;;;;;;5083909;28;19939;-83
2023/05/30 06:57:36;;;;;;;;;;;14.00;99.90;;;;;;5098202;28;19935;-83
2023/05/30 07:00:03;;;;;;;;;;;14.00;99.90;;;;;;5099981;28;19961;-84
2023/05/30 07:02:29;;;;;;;;;;;14.10;99.90;;;;;;5096016;28;19942;-86
2023/05/30 07:04:54;;;;;;;;;;;13.90;99.90;;;;;;5101844;28;19924;-87
2023/05/30 07:07:20;;;;;;;;;;;13.90;99.90;;;;;;5079715;28;20443;-85
2023/05/30 07:09:46;;;;;;;;;;;13.90;99.90;;;;;;5098262;28;20478;-84
2023/05/30 07:12:13;;;;;;;;;;;14.20;99.90;;;;;;5102489;28;19928;-87
2023/05/30 07:14:38;;;;;;;;;;;14.00;99.90;;;;;;5081260;28;19936;-85
2023/05/30 07:17:07;;;;;;;;;;;14.10;99.90;;;;;;5100035;28;20622;-85
2023/05/30 07:19:32;;;;;;;;;;;14.20;99.90;;;;;;5100573;28;19969;-87
2023/05/30 07:21:58;;;;;;;;;;;14.30;99.90;;;;;;5085526;28;19928;-85
2023/05/30 07:24:23;;;;;;;;;;;14.40;99.90;;;;;;5098674;28;19934;-85
2023/05/30 07:26:50;;;;;;;;;;;14.60;99.90;;;;;;5102086;28;19932;-84
2023/05/30 07:29:15;;;;;;;;;;;14.50;99.90;;;;;;5100880;28;19934;-83
2023/05/30 07:31:41;;;;;;;;;;;14.30;99.90;;;;;;5100108;28;20323;-84
2023/05/30 07:34:06;;;;;;;;;;;14.30;99.90;;;;;;5101601;28;20010;-86
2023/05/30 07:36:32;;;;;;;;;;;14.40;99.90;;;;;;5099497;28;19927;-85
2023/05/30 07:38:58;;;;;;;;;;;14.60;99.90;;;;;;5100850;28;19988;-87
2023/05/30 07:41:23;;;;;;;;;;;14.60;99.90;;;;;;5099504;28;19927;-84
2023/05/30 07:43:49;;;;;;;;;;;14.80;99.90;;;;;;5099759;28;19924;-84
2023/05/30 07:46:15;;;;;;;;;;;14.50;99.90;;;;;;5099560;28;19943;-81
2023/05/30 07:48:40;;;;;;;;;;;14.70;99.90;;;;;;5081910;28;20274;-85
2023/05/30 07:51:08;;;;;;;;;;;14.80;99.90;;;;;;5097113;28;20673;-83
2023/05/30 07:53:34;;;;;;;;;;;14.60;99.90;;;;;;5100113;28;19948;-84
2023/05/30 07:55:59;;;;;;;;;;;14.70;99.90;;;;;;5097685;28;19931;-85
2023/05/30 07:58:25;;;;;;;;;;;14.40;99.90;;;;;;5096672;28;19955;-86
2023/05/30 08:00:50;;;;;;;;;;;14.50;99.90;;;;;;5100164;28;19931;-84
2023/05/30 08:03:16;;;;;;;;;;;14.60;99.90;;;;;;5088156;28;19986;-85
2023/05/30 08:05:42;;;;;;;;;;;14.50;99.90;;;;;;5074745;28;19939;-84
2023/05/30 08:08:08;;;;;;;;;;;14.70;99.90;;;;;;5088992;28;19924;-85
2023/05/30 08:10:33;;;;;;;;;;;14.40;99.90;;;;;;5067903;28;20411;-86
2023/05/30 08:12:59;;;;;;;;;;;14.60;99.90;;;;;;5096333;28;19934;-85
2023/05/30 08:15:26;;;;;;;;;;;14.60;99.90;;;;;;5097689;28;19934;-84
2023/05/30 08:17:53;;;;;;;;;;;14.40;99.90;;;;;;5096532;28;20023;-86
2023/05/30 08:20:18;;;;;;;;;;;14.40;99.90;;;;;;5099319;28;19927;-85
2023/05/30 08:22:44;;;;;;;;;;;14.50;99.90;;;;;;5097288;28;19932;-85
2023/05/30 08:25:10;;;;;;;;;;;14.60;99.90;;;;;;5101792;28;19927;-84
2023/05/30 08:27:37;;;;;;;;;;;14.40;99.90;;;;;;5093861;28;20544;-84
2023/05/30 08:30:04;;;;;;;;;;;14.50;99.90;;;;;;5098276;28;19928;-86
2023/05/30 08:32:30;;;;;;;;;;;14.20;99.90;;;;;;5099159;28;20380;-86
2023/05/30 08:34:56;;;;;;;;;;;14.50;99.90;;;;;;5098075;28;19953;-85
2023/05/30 08:37:21;;;;;;;;;;;14.40;99.90;;;;;;5093166;28;19924;-86
2023/05/30 08:39:47;;;;;;;;;;;14.30;99.90;;;;;;5098088;28;19931;-86
2023/05/30 08:42:13;;;;;;;;;;;14.40;99.90;;;;;;5094205;28;19935;-85
2023/05/30 08:44:39;;;;;;;;;;;14.40;99.90;;;;;;5094650;28;20771;-86
2023/05/30 08:47:07;;;;;;;;;;;14.50;99.90;;;;;;5100150;28;19928;-86
2023/05/30 08:49:35;;;;;;;;;;;14.40;99.90;;;;;;5094785;28;19935;-86
2023/05/30 08:52:01;;;;;;;;;;;14.60;99.90;;;;;;5099172;28;20714;-86
2023/05/30 08:54:31;;;;;;;;;;;14.60;99.90;;;;;;5098359;28;19936;-86
2023/05/30 08:57:10;;;;;;;;;;;14.50;99.90;;;;;;5094725;28;20056;-86
2023/05/30 08:59:36;;;;;;;;;;;14.50;99.90;;;;;;5098134;28;19935;-86
2023/05/30 09:02:02;;;;;;;;;;;14.80;99.90;;;;;;5096804;28;19928;-86
2023/05/30 09:04:29;;;;;;;;;;;14.80;99.90;;;;;;5098716;28;19928;-87
2023/05/30 09:06:56;;;;;;;;;;;15.00;99.90;;;;;;5080775;28;20040;-85
2023/05/30 09:09:23;;;;;;;;;;;14.60;99.90;;;;;;5098814;28;20399;-85
2023/05/30 09:11:50;;;;;;;;;;;14.50;99.90;;;;;;5094228;28;20058;-85
2023/05/30 09:14:15;;;;;;;;;;;14.50;99.90;;;;;;5098911;28;19931;-84
2023/05/30 09:16:41;;;;;;;;;;;14.60;99.90;;;;;;5095945;28;19927;-86
2023/05/30 09:19:07;;;;;;;;;;;14.50;99.90;;;;;;5100450;28;19968;-85
2023/05/30 09:21:33;;;;;;;;;;;14.50;99.90;;;;;;5096433;28;20293;-85
2023/05/30 09:24:03;;;;;;;;;;;14.70;99.90;;;;;;5099979;28;19938;-85
2023/05/30 09:26:29;;;;;;;;;;;14.60;99.90;;;;;;5097259;28;19928;-86
2023/05/30 09:28:55;;;;;;;;;;;14.60;99.90;;;;;;5100797;28;19934;-86
2023/05/30 09:31:22;;;;;;;;;;;14.60;99.90;;;;;;5097680;28;20328;-86
2023/05/30 09:33:51;;;;;;;;;;;14.70;99.90;;;;;;5099130;28;20427;-88
2023/05/30 09:36:18;;;;;;;;;;;14.70;99.90;;;;;;5080813;28;19931;-86
2023/05/30 09:38:57;;;;;;;;;;;14.80;99.90;;;;;;5103073;28;19973;-85
2023/05/30 09:41:23;;;;;;;;;;;14.80;99.90;;;;;;5100048;28;19953;-84
2023/05/30 09:43:53;;;;;;;;;;;14.60;99.90;;;;;;5099390;28;19936;-85
2023/05/30 09:46:19;;;;;;;;;;;14.50;99.90;;;;;;5086294;28;19935;-86
2023/05/30 09:48:45;;;;;;;;;;;14.30;99.90;;;;;;5099173;28;19928;-87
2023/05/30 09:51:11;;;;;;;;;;;14.50;99.90;;;;;;5085809;28;19996;-85
2023/05/30 09:53:37;;;;;;;;;;;14.70;99.90;;;;;;5100206;28;20011;-83
2023/05/30 09:56:03;;;;;;;;;;;14.80;99.90;;;;;;5103363;28;20413;-86
2023/05/30 09:58:28;;;;;;;;;;;14.80;99.90;;;;;;5101977;28;19936;-86
2023/05/30 10:00:55;;;;;;;;;;;14.60;99.90;;;;;;5086028;28;19924;-86
2023/05/30 10:03:21;;;;;;;;;;;14.70;99.90;;;;;;5098572;28;20415;-86
2023/05/30 10:05:48;;;;;;;;;;;14.90;99.90;;;;;;5099786;28;19931;-87
2023/05/30 10:08:13;;;;;;;;;;;14.60;99.90;;;;;;5101819;28;19931;-85
2023/05/30 10:10:39;;;;;;;;;;;14.30;99.90;;;;;;5102237;28;19928;-84
2023/05/30 10:13:05;;;;;;;;;;;14.20;99.90;;;;;;5098220;28;19989;-84
2023/05/30 10:15:31;;;;;;;;;;;14.60;99.90;;;;;;5102029;28;19927;-84
2023/05/30 10:18:09;;;;;;;;;;;14.60;99.90;;;;;;5119905;27;19974;-87
2023/05/30 10:20:36;;;;;;;;;;;14.70;99.90;;;;;;5101225;28;20720;-87
2023/05/30 10:23:06;;;;;;;;;;;14.60;99.90;;;;;;5100694;28;19931;-85
2023/05/30 10:25:33;;;;;;;;;;;14.60;99.90;;;;;;5101709;28;19928;-86
2023/05/30 10:28:00;;;;;;;;;;;14.90;99.90;;;;;;5101834;28;19928;-85
2023/05/30 10:30:27;;;;;;;;;;;15.00;99.90;;;;;;5098787;28;19934;-86
2023/05/30 10:33:04;;;;;;;;;;;15.10;99.90;;;;;;5100255;28;19974;-85
2023/05/30 10:35:31;;;;;;;;;;;14.90;99.90;;;;;;5101657;28;19927;-86
2023/05/30 10:37:57;;;;;;;;;;;14.70;99.90;;;;;;5101716;28;19928;-85
2023/05/30 10:40:43;;;;;;;;;;;15.10;99.90;;;;;;5084112;28;19924;-85
2023/05/30 10:43:21;;;;;;;;;;;14.90;99.90;;;;;;5084589;28;19931;-85
2023/05/30 10:45:46;;;;;;;;;;;15.10;99.90;;;;;;5101033;28;19960;-85
2023/05/30 10:48:25;;;;;;;;;;;15.00;99.90;;;;;;5084088;28;20393;-83
2023/05/30 10:50:54;;;;;;;;;;;15.00;99.90;;;;;;5098558;28;19947;-85
2023/05/30 10:53:20;;;;;;;;;;;15.00;99.90;;;;;;5101136;28;20354;-86
2023/05/30 10:55:47;;;;;;;;;;;14.70;99.90;;;;;;5098230;28;19932;-84
2023/05/30 10:58:31;;;;;;;;;;;15.00;99.90;;;;;;5084341;28;20343;-84
2023/05/30 11:01:16;;;;;;;;;;;14.90;99.90;;;;;;5091202;28;19997;-85
2023/05/30 11:03:44;;;;;;;;;;;15.00;99.90;;;;;;5095653;28;19924;-86
2023/05/30 11:06:10;;;;;;;;;;;15.00;99.90;;;;;;5084923;28;19928;-85
2023/05/30 11:08:38;;;;;;;;;;;15.40;99.90;;;;;;5099608;28;19928;-84
2023/05/30 11:11:15;;;;;;;;;;;15.30;99.90;;;;;;5104488;28;20080;-85
2023/05/30 11:13:43;;;;;;;;;;;15.00;99.90;;;;;;5098766;28;19967;-85
2023/05/30 11:16:25;;;;;;;;;;;14.80;99.90;;;;;;5085500;28;19939;-85
2023/05/30 11:18:51;;;;;;;;;;;15.40;99.90;;;;;;5095869;28;19972;-86
2023/05/30 11:21:36;;;;;;;;;;;15.30;99.90;;;;;;5100665;28;19985;-86
2023/05/30 11:24:03;;;;;;;;;;;15.40;99.90;;;;;;5099231;28;19933;-85
2023/05/30 11:26:48;;;;;;;;;;;15.40;99.90;;;;;;5082125;28;19931;-85
2023/05/30 11:29:32;;;;;;;;;;;15.40;99.90;;;;;;5094674;28;19927;-85
2023/05/30 11:31:59;;;;;;;;;;;15.40;99.90;;;;;;5081298;28;19935;-85
2023/05/30 11:34:24;;;;;;;;;;;15.20;99.90;;;;;;5096827;28;19931;-87
2023/05/30 11:36:50;;;;;;;;;;;15.40;99.90;;;;;;5094226;28;19954;-86
2023/05/30 11:39:18;;;;;;;;;;;15.70;99.90;;;;;;5098105;28;20988;-86
2023/05/30 11:41:44;;;;;;;;;;;15.70;99.90;;;;;;5095618;28;19947;-87
2023/05/30 11:44:09;;;;;;;;;;;15.80;99.90;;;;;;5100331;28;19946;-86
2023/05/30 11:46:35;;;;;;;;;;;15.90;99.90;;;;;;5099612;28;19934;-85
2023/05/30 11:49:04;;;;;;;;;;;15.90;99.90;;;;;;5099213;28;20307;-86
2023/05/30 11:51:30;;;;;;;;;;;15.70;99.90;;;;;;5100844;28;19927;-85
2023/05/30 11:53:59;;;;;;;;;;;15.80;99.90;;;;;;5098979;28;19931;-86
2023/05/30 11:56:29;;;;;;;;;;;15.80;99.90;;;;;;5095966;28;19928;-86
2023/05/30 11:58:56;;;;;;;;;;;15.70;99.90;;;;;;5099016;28;19932;-85
2023/05/30 12:01:22;;;;;;;;;;;15.70;99.90;;;;;;5098190;28;19928;-87
2023/05/30 12:03:48;;;;;;;;;;;15.80;99.90;;;;;;5096011;28;19934;-86
2023/05/30 12:06:14;;;;;;;;;;;15.60;99.90;;;;;;5100338;28;19923;-88
2023/05/30 12:08:40;;;;;;;;;;;15.70;99.90;;;;;;5097513;28;20425;-85
2023/05/30 12:11:06;;;;;;;;;;;15.80;99.90;;;;;;5098638;28;20305;-82
2023/05/30 12:13:31;;;;;;;;;;;15.90;99.90;;;;;;5080439;28;19924;-86
2023/05/30 12:15:57;;;;;;;;;;;16.00;99.90;;;;;;5098401;28;19935;-83
2023/05/30 12:18:23;;;;;;;;;;;16.10;99.90;;;;;;5094895;28;19931;-84
2023/05/30 12:20:48;;;;;;;;;;;15.90;99.90;;;;;;5097236;28;20632;-85
2023/05/30 12:23:14;;;;;;;;;;;15.60;99.90;;;;;;5098539;28;19997;-85
2023/05/30 12:25:47;;;;;;;;;;;15.70;99.90;;;;;;5100245;28;19923;-86
2023/05/30 12:28:13;;;;;;;;;;;15.90;99.90;;;;;;5099946;28;19924;-84
2023/05/30 12:30:42;;;;;;;;;;;15.80;99.90;;;;;;5099209;28;19931;-86
2023/05/30 12:33:21;;;;;;;;;;;16.00;99.90;;;;;;5099409;28;19924;-85
2023/05/30 12:35:50;;;;;;;;;;;15.80;99.90;;;;;;5082325;28;19928;-85
2023/05/30 12:38:15;;;;;;;;;;;15.70;99.90;;;;;;5101610;28;19927;-86
2023/05/30 12:40:48;;;;;;;;;;;15.50;99.90;;;;;;5100212;28;19980;-86
2023/05/30 12:43:14;;;;;;;;;;;15.70;99.90;;;;;;5095976;28;20019;-87
2023/05/30 12:45:42;;;;;;;;;;;15.80;99.90;;;;;;5099493;28;19928;-86
2023/05/30 12:48:08;;;;;;;;;;;15.60;99.90;;;;;;5101127;28;20536;-86
2023/05/30 12:50:34;;;;;;;;;;;16.00;99.90;;;;;;5097839;28;19931;-84
2023/05/30 12:52:59;;;;;;;;;;;15.80;99.90;;;;;;5098721;28;19990;-86
2023/05/30 12:55:25;;;;;;;;;;;16.00;99.90;;;;;;5096438;28;19928;-85
2023/05/30 12:57:50;;;;;;;;;;;16.10;99.90;;;;;;5099947;28;19969;-86
2023/05/30 13:00:16;;;;;;;;;;;15.90;99.90;;;;;;5096723;28;19956;-85
2023/05/30 13:02:42;;;;;;;;;;;16.10;99.90;;;;;;5099001;28;19923;-86
2023/05/30 13:05:08;;;;;;;;;;;16.00;99.90;;;;;;5076986;28;19932;-88
2023/05/30 13:07:33;;;;;;;;;;;16.00;99.90;;;;;;5098363;28;19927;-84
2023/05/30 13:09:59;;;;;;;;;;;16.10;99.90;;;;;;5096537;28;19924;-87
2023/05/30 13:12:25;;;;;;;;;;;15.80;99.90;;;;;;5096121;28;19976;-85
2023/05/30 13:14:50;;;;;;;;;;;15.80;99.90;;;;;;5097768;28;19929;-89
2023/05/30 13:17:16;;;;;;;;;;;16.00;99.90;;;;;;5084369;28;19924;-86
2023/05/30 13:19:41;;;;;;;;;;;16.00;99.90;;;;;;5077529;28;19928;-87
2023/05/30 13:22:09;;;;;;;;;;;16.00;99.90;;;;;;5100664;28;19927;-86
2023/05/30 13:24:34;;;;;;;;;;;16.00;99.90;;;;;;5099460;28;19980;-85
2023/05/30 13:27:00;;;;;;;;;;;15.80;99.90;;;;;;5098397;28;19967;-86
2023/05/30 13:29:26;;;;;;;;;;;15.70;99.90;;;;;;5098258;28;20016;-86
2023/05/30 13:31:51;;;;;;;;;;;16.00;99.90;;;;;;5098807;28;19924;-84
2023/05/30 13:34:17;;;;;;;;;;;16.00;99.90;;;;;;5094965;28;20656;-86
2023/05/30 13:36:43;;;;;;;;;;;16.10;99.90;;;;;;5095336;28;19932;-83
2023/05/30 13:39:08;;;;;;;;;;;16.10;99.90;;;;;;5077791;28;19928;-84
2023/05/30 13:41:35;;;;;;;;;;;16.00;99.90;;;;;;5095191;28;19928;-84
2023/05/30 13:44:01;;;;;;;;;;;16.20;99.90;;;;;;5094005;28;19946;-85
2023/05/30 13:46:26;;;;;;;;;;;16.30;99.90;;;;;;5096904;28;20444;-85
2023/05/30 13:48:52;;;;;;;;;;;16.50;99.90;;;;;;5094944;28;19932;-85
2023/05/30 13:51:18;;;;;;;;;;;16.60;99.90;;;;;;5081787;28;19980;-86
2023/05/30 13:53:44;;;;;;;;;;;16.70;99.90;;;;;;5096527;28;19970;-86
2023/05/30 13:56:09;;;;;;;;;;;16.70;99.90;;;;;;5097084;28;19935;-87
2023/05/30 13:58:35;;;;;;;;;;;16.80;99.90;;;;;;5095299;28;19925;-86
2023/05/30 14:01:03;;;;;;;;;;;16.70;99.90;;;;;;5080396;28;20261;-86
2023/05/30 14:03:28;;;;;;;;;;;16.90;99.90;;;;;;5096980;28;19986;-85
2023/05/30 14:05:54;;;;;;;;;;;16.80;99.90;;;;;;5094617;28;20354;-85
2023/05/30 14:08:20;;;;;;;;;;;16.60;99.90;;;;;;5081524;28;19931;-86
2023/05/30 14:10:45;;;;;;;;;;;16.90;99.90;;;;;;5095165;28;19927;-86
2023/05/30 14:13:12;;;;;;;;;;;16.90;99.90;;;;;;5098518;28;20409;-83
2023/05/30 14:15:38;;;;;;;;;;;16.60;99.90;;;;;;5096170;28;19928;-86